createdAt,value
2018-12-20T00:00:03.491Z,94.90
2018-12-20T00:02:34.416Z,95.40
2018-12-20T00:05:06.342Z,95.10
2018-12-20T00:07:37.345Z,95.30
2018-12-20T00:10:08.387Z,95.40
2018-12-20T00:12:39.479Z,95.70
2018-12-20T00:15:10.441Z,95.70
2018-12-20T00:17:50.820Z,95.40
2018-12-20T00:20:21.906Z,95.20
2018-12-20T00:22:52.750Z,95.50
2018-12-20T00:25:23.532Z,95.60
2018-12-20T00:27:55.812Z,96.10
2018-12-20T00:30:26.752Z,95.40
2018-12-20T00:32:57.651Z,95.80
2018-12-20T00:35:28.680Z,96.10
2018-12-20T00:37:59.826Z,95.90
2018-12-20T00:40:30.633Z,95.70
2018-12-20T00:43:01.566Z,95.80
2018-12-20T00:45:32.739Z,96.70
2018-12-20T00:48:06.556Z,98.60
2018-12-20T00:50:37.699Z,99.20
2018-12-20T00:53:08.786Z,99.90
2018-12-20T00:55:39.736Z,99.90
2018-12-20T00:58:10.803Z,99.90
2018-12-20T01:00:41.667Z,99.90
2018-12-20T01:03:12.671Z,99.90
2018-12-20T01:05:43.546Z,99.90
2018-12-20T01:08:14.402Z,99.90
2018-12-20T01:10:45.485Z,99.90
2018-12-20T01:13:16.428Z,99.90
2018-12-20T01:15:47.242Z,99.90
2018-12-20T01:18:18.210Z,99.90
2018-12-20T01:20:49.380Z,99.90
2018-12-20T01:23:20.351Z,99.90
2018-12-20T01:25:51.226Z,99.90
2018-12-20T01:28:22.111Z,99.90
2018-12-20T01:30:52.864Z,99.90
2018-12-20T01:33:24.007Z,99.90
2018-12-20T01:35:54.895Z,99.90
2018-12-20T01:38:25.883Z,99.90
2018-12-20T01:40:56.693Z,99.90
2018-12-20T01:43:27.717Z,99.90
2018-12-20T01:45:58.818Z,99.90
2018-12-20T01:48:30.121Z,99.90
2018-12-20T01:51:01.021Z,99.90
2018-12-20T01:53:32.014Z,99.90
2018-12-20T01:56:02.856Z,99.90
2018-12-20T01:58:33.731Z,99.90
2018-12-20T02:01:04.474Z,99.90
2018-12-20T02:03:35.297Z,99.90
2018-12-20T02:06:06.186Z,99.90
2018-12-20T02:08:37.144Z,99.90
2018-12-20T02:11:08.175Z,99.90
2018-12-20T02:13:39.091Z,99.90
2018-12-20T02:16:09.883Z,99.90
2018-12-20T02:18:40.768Z,99.90
2018-12-20T02:21:11.676Z,99.90
2018-12-20T02:23:42.725Z,99.90
2018-12-20T02:26:13.493Z,99.90
2018-12-20T02:28:44.340Z,99.90
2018-12-20T02:31:15.115Z,99.90
2018-12-20T02:33:46.153Z,99.90
2018-12-20T02:36:16.876Z,99.90
2018-12-20T02:38:47.716Z,99.90
2018-12-20T02:41:18.662Z,99.90
2018-12-20T02:43:49.715Z,99.90
2018-12-20T02:46:21.268Z,99.90
2018-12-20T02:48:52.188Z,99.90
2018-12-20T02:51:23.174Z,99.90
2018-12-20T02:53:53.891Z,99.90
2018-12-20T02:56:24.710Z,99.90
2018-12-20T02:58:55.395Z,99.90
2018-12-20T03:01:26.116Z,99.90
2018-12-20T03:03:56.946Z,99.90
2018-12-20T03:06:27.673Z,99.90
2018-12-20T03:08:58.529Z,99.90
2018-12-20T03:11:29.376Z,99.90
2018-12-20T03:14:00.322Z,99.90
2018-12-20T03:16:31.308Z,99.90
2018-12-20T03:19:02.503Z,99.90
2018-12-20T03:21:33.457Z,99.90
2018-12-20T03:24:04.452Z,99.90
2018-12-20T03:26:35.113Z,99.90
2018-12-20T03:29:06.072Z,99.90
2018-12-20T03:31:37.152Z,99.90
2018-12-20T03:34:08.153Z,99.90
2018-12-20T03:36:39.080Z,99.90
2018-12-20T03:39:10.359Z,99.90
2018-12-20T03:41:41.409Z,99.90
2018-12-20T03:44:12.256Z,99.90
2018-12-20T03:46:43.466Z,99.90
2018-12-20T03:49:14.500Z,99.90
2018-12-20T03:51:45.676Z,99.90
2018-12-20T03:54:17.337Z,99.90
2018-12-20T03:56:48.174Z,99.90
2018-12-20T03:59:19.315Z,99.90
2018-12-20T04:01:50.445Z,99.90
2018-12-20T04:04:21.448Z,99.90
2018-12-20T04:06:52.478Z,99.90
2018-12-20T04:09:23.904Z,99.90
2018-12-20T04:11:54.773Z,99.90
2018-12-20T04:14:25.804Z,99.90
2018-12-20T04:16:56.869Z,99.90
2018-12-20T04:19:28.059Z,99.90
2018-12-20T04:21:59.383Z,99.90
2018-12-20T04:24:30.636Z,99.90
2018-12-20T04:27:01.528Z,99.90
2018-12-20T04:29:32.621Z,99.90
2018-12-20T04:32:03.639Z,99.90
2018-12-20T04:34:34.646Z,99.90
2018-12-20T04:37:05.585Z,99.90
2018-12-20T04:39:36.926Z,99.90
2018-12-20T04:42:08.227Z,99.90
2018-12-20T04:44:39.298Z,99.90
2018-12-20T04:47:10.682Z,99.90
2018-12-20T04:49:41.682Z,99.90
2018-12-20T04:52:13.475Z,99.90
2018-12-20T04:54:44.686Z,99.90
2018-12-20T04:57:15.695Z,99.90
2018-12-20T04:59:46.720Z,99.90
2018-12-20T05:02:17.828Z,99.90
2018-12-20T05:04:48.746Z,99.90
2018-12-20T05:07:19.713Z,99.90
2018-12-20T05:09:50.783Z,99.90
2018-12-20T05:12:21.678Z,99.90
2018-12-20T05:14:52.751Z,99.90
2018-12-20T05:17:23.851Z,99.90
2018-12-20T05:19:54.980Z,99.90
2018-12-20T05:22:26.289Z,99.90
2018-12-20T05:24:57.406Z,99.90
2018-12-20T05:27:28.675Z,99.90
2018-12-20T05:29:59.558Z,99.90
2018-12-20T05:32:30.436Z,99.90
2018-12-20T05:35:01.289Z,99.90
2018-12-20T05:37:32.675Z,99.90
2018-12-20T05:40:04.050Z,99.90
2018-12-20T05:42:35.112Z,99.90
2018-12-20T05:45:06.430Z,99.90
2018-12-20T05:47:37.691Z,99.90
2018-12-20T05:50:08.887Z,99.90
2018-12-20T05:52:40.208Z,99.90
2018-12-20T05:55:11.334Z,99.90
2018-12-20T05:57:43.305Z,99.90
2018-12-20T06:00:15.145Z,99.90
2018-12-20T06:02:46.470Z,99.90
2018-12-20T06:05:17.521Z,99.90
2018-12-20T06:07:48.475Z,99.90
2018-12-20T06:10:19.742Z,99.90
2018-12-20T06:12:50.756Z,99.90
2018-12-20T06:15:21.806Z,99.90
2018-12-20T06:17:53.222Z,99.90
2018-12-20T06:20:24.443Z,99.90
2018-12-20T06:22:55.370Z,99.90
2018-12-20T06:25:26.472Z,99.90
2018-12-20T06:27:57.345Z,99.90
2018-12-20T06:30:28.268Z,99.90
2018-12-20T06:32:59.120Z,99.90
2018-12-20T06:35:30.046Z,99.90
2018-12-20T06:38:00.850Z,99.90
2018-12-20T06:40:31.826Z,99.90
2018-12-20T06:43:02.611Z,99.90
2018-12-20T06:45:40.011Z,99.90
2018-12-20T06:48:11.191Z,99.90
2018-12-20T06:50:42.371Z,99.90
2018-12-20T06:53:13.346Z,99.90
2018-12-20T06:55:44.526Z,99.90
2018-12-20T06:58:16.171Z,99.90
2018-12-20T07:00:47.116Z,99.90
2018-12-20T07:03:17.976Z,99.90
2018-12-20T07:05:48.851Z,99.90
2018-12-20T07:08:19.651Z,99.90
2018-12-20T07:10:50.591Z,99.90
2018-12-20T07:13:21.346Z,99.90
2018-12-20T07:15:52.206Z,99.90
2018-12-20T07:18:23.337Z,99.90
2018-12-20T07:20:54.377Z,99.90
2018-12-20T07:23:25.468Z,99.90
2018-12-20T07:25:56.451Z,99.90
2018-12-20T07:28:27.351Z,99.90
2018-12-20T07:30:58.352Z,99.90
2018-12-20T07:33:29.322Z,99.90
2018-12-20T07:36:00.091Z,99.90
2018-12-20T07:38:30.963Z,99.90
2018-12-20T07:41:01.931Z,99.90
2018-12-20T07:43:32.942Z,99.90
2018-12-20T07:46:03.926Z,99.90
2018-12-20T07:48:35.072Z,99.90
2018-12-20T07:51:06.341Z,99.90
2018-12-20T07:53:37.250Z,99.90
2018-12-20T07:56:08.217Z,99.90
2018-12-20T07:58:39.117Z,99.90
2018-12-20T08:01:10.172Z,99.90
2018-12-20T08:03:40.986Z,99.90
2018-12-20T08:06:11.956Z,99.90
2018-12-20T08:08:43.162Z,99.90
2018-12-20T08:11:14.158Z,99.90
2018-12-20T08:13:45.071Z,99.90
2018-12-20T08:16:16.006Z,99.90
2018-12-20T08:18:46.891Z,99.90
2018-12-20T08:21:18.157Z,99.90
2018-12-20T08:23:49.362Z,99.90
2018-12-20T08:26:20.397Z,99.90
2018-12-20T08:28:51.352Z,99.90
2018-12-20T08:31:22.277Z,99.90
2018-12-20T08:33:52.949Z,99.90
2018-12-20T08:36:23.791Z,99.90
2018-12-20T08:38:54.686Z,99.90
2018-12-20T08:41:25.627Z,99.90
2018-12-20T08:43:56.422Z,99.90
2018-12-20T08:46:27.397Z,99.90
2018-12-20T08:48:58.646Z,99.90
2018-12-20T08:51:29.787Z,99.90
2018-12-20T08:54:00.847Z,99.90
2018-12-20T08:56:32.012Z,99.90
2018-12-20T08:59:03.016Z,99.90
2018-12-20T09:01:34.007Z,99.90
2018-12-20T09:04:04.856Z,99.90
2018-12-20T09:06:35.832Z,99.90
2018-12-20T09:09:08.451Z,99.90
2018-12-20T09:11:39.532Z,99.90
2018-12-20T09:14:10.507Z,99.90
2018-12-20T09:16:43.872Z,99.90
2018-12-20T09:19:14.752Z,99.90
2018-12-20T09:21:45.837Z,99.90
2018-12-20T09:24:16.897Z,99.90
2018-12-20T09:26:47.911Z,99.90
2018-12-20T09:29:19.511Z,99.90
2018-12-20T09:31:50.477Z,99.90
2018-12-20T09:34:21.392Z,99.90
2018-12-20T09:36:52.297Z,99.90
2018-12-20T09:39:23.131Z,99.90
2018-12-20T09:41:54.087Z,99.90
2018-12-20T09:44:26.035Z,99.90
2018-12-20T09:47:00.987Z,99.90
2018-12-20T09:49:32.343Z,99.90
2018-12-20T09:52:03.422Z,99.90
2018-12-20T09:54:34.358Z,99.90
2018-12-20T09:57:05.627Z,99.90
2018-12-20T09:59:36.612Z,99.90
2018-12-20T10:02:07.461Z,99.90
2018-12-20T10:04:38.247Z,99.90
2018-12-20T10:07:09.189Z,99.90
2018-12-20T10:09:40.097Z,99.90
2018-12-20T10:12:11.148Z,99.90
2018-12-20T10:14:42.366Z,99.90
2018-12-20T10:17:19.845Z,99.90
2018-12-20T10:19:46.357Z,99.90
2018-12-20T10:22:17.317Z,99.90
2018-12-20T10:24:48.307Z,99.90
2018-12-20T10:27:19.312Z,99.90
2018-12-20T10:29:50.357Z,99.90
2018-12-20T10:32:21.248Z,99.90
2018-12-20T10:34:52.073Z,99.90
2018-12-20T10:37:22.982Z,99.90
2018-12-20T10:39:53.727Z,99.90
2018-12-20T10:42:24.651Z,99.90
2018-12-20T10:44:55.517Z,99.90
2018-12-20T10:47:29.184Z,99.90
2018-12-20T10:50:01.043Z,99.90
2018-12-20T10:52:32.047Z,99.90
2018-12-20T10:55:03.298Z,99.90
2018-12-20T10:57:34.426Z,99.90
2018-12-20T11:00:06.007Z,99.90
2018-12-20T11:03:40.706Z,99.90
2018-12-20T11:06:16.602Z,99.90
2018-12-20T11:08:52.382Z,99.90
2018-12-20T11:11:23.288Z,99.90
2018-12-20T11:13:54.274Z,99.90
2018-12-20T11:16:25.333Z,99.90
2018-12-20T11:18:56.434Z,99.90
2018-12-20T11:21:27.446Z,99.90
2018-12-20T11:23:58.532Z,99.90
2018-12-20T11:26:29.772Z,99.90
2018-12-20T11:29:00.872Z,99.90
2018-12-20T11:31:31.972Z,99.90
2018-12-20T11:34:03.112Z,99.90
2018-12-20T11:36:34.185Z,99.90
2018-12-20T11:39:08.546Z,99.90
2018-12-20T11:41:40.032Z,99.90
2018-12-20T11:44:11.242Z,99.90
2018-12-20T11:46:42.103Z,99.90
2018-12-20T11:49:13.292Z,99.90
2018-12-20T11:51:44.672Z,99.90
2018-12-20T11:54:15.812Z,99.90
2018-12-20T11:56:47.142Z,99.90
2018-12-20T11:59:18.322Z,99.90
2018-12-20T12:01:49.513Z,99.90
2018-12-20T12:04:20.672Z,99.90
2018-12-20T12:06:51.708Z,99.90
2018-12-20T12:09:23.722Z,99.90
2018-12-20T12:11:54.812Z,99.90
2018-12-20T12:14:25.863Z,99.90
2018-12-20T12:16:56.852Z,99.90
2018-12-20T12:19:28.402Z,99.90
2018-12-20T12:21:59.432Z,99.90
2018-12-20T12:24:30.503Z,99.90
2018-12-20T12:27:01.642Z,99.90
2018-12-20T12:29:32.890Z,99.90
2018-12-20T12:32:03.913Z,99.90
2018-12-20T12:34:35.069Z,99.90
2018-12-20T12:37:06.117Z,99.90
2018-12-20T12:39:37.252Z,99.90
2018-12-20T12:42:08.247Z,99.90
2018-12-20T12:44:39.372Z,99.90
2018-12-20T12:47:10.363Z,99.90
2018-12-20T12:49:41.474Z,99.90
2018-12-20T12:52:13.061Z,99.90
2018-12-20T12:54:44.332Z,99.90
2018-12-20T12:57:15.472Z,99.90
2018-12-20T12:59:46.602Z,99.90
2018-12-20T13:02:17.602Z,99.90
2018-12-20T13:04:48.833Z,99.90
2018-12-20T13:07:19.863Z,99.90
2018-12-20T13:09:51.042Z,99.90
2018-12-20T13:12:22.047Z,99.90
2018-12-20T13:14:53.142Z,99.90
2018-12-20T13:17:24.674Z,99.90
2018-12-20T13:19:55.921Z,99.90
2018-12-20T13:22:26.967Z,99.90
2018-12-20T13:24:58.271Z,99.90
2018-12-20T13:27:29.462Z,99.90
2018-12-20T13:30:00.623Z,99.90
2018-12-20T13:32:31.542Z,99.90
2018-12-20T13:35:05.732Z,99.90
2018-12-20T13:37:36.792Z,99.90
2018-12-20T13:40:08.393Z,99.90
2018-12-20T13:42:39.342Z,99.90
2018-12-20T13:45:10.472Z,99.90
2018-12-20T13:47:41.442Z,99.90
2018-12-20T13:50:12.718Z,99.90
2018-12-20T13:52:44.204Z,99.90
2018-12-20T13:55:15.232Z,99.90
2018-12-20T13:57:46.402Z,99.90
2018-12-20T14:00:17.689Z,99.90
2018-12-20T14:02:48.757Z,99.90
2018-12-20T14:05:19.932Z,99.90
2018-12-20T14:07:58.627Z,99.90
2018-12-20T14:10:24.472Z,99.90
2018-12-20T14:12:55.602Z,99.90
2018-12-20T14:15:26.722Z,99.90
2018-12-20T14:17:57.752Z,99.90
2018-12-20T14:20:28.962Z,99.90
2018-12-20T14:22:59.993Z,99.90
2018-12-20T14:25:31.105Z,99.90
2018-12-20T14:28:02.382Z,99.90
2018-12-20T14:30:33.682Z,99.90
2018-12-20T14:33:04.652Z,99.90
2018-12-20T14:35:35.863Z,99.90
2018-12-20T14:38:06.962Z,99.90
2018-12-20T14:40:38.022Z,99.90
2018-12-20T14:43:09.065Z,99.90
2018-12-20T14:45:40.437Z,99.90
2018-12-20T14:48:13.663Z,99.90
2018-12-20T14:50:44.802Z,99.90
2018-12-20T14:53:16.227Z,99.90
2018-12-20T14:55:47.462Z,99.90
2018-12-20T14:58:18.641Z,99.90
2018-12-20T15:00:49.732Z,99.90
2018-12-20T15:03:20.812Z,99.90
2018-12-20T15:05:51.991Z,99.90
2018-12-20T15:08:22.982Z,99.90
2018-12-20T15:10:54.103Z,99.90
2018-12-20T15:13:25.141Z,99.90
2018-12-20T15:15:56.262Z,99.90
2018-12-20T15:18:27.624Z,99.90
2018-12-20T15:20:59.207Z,99.90
2018-12-20T16:14:34.412Z,99.90
2018-12-20T16:17:05.631Z,99.90
2018-12-20T16:19:36.611Z,99.90
2018-12-20T16:22:07.453Z,99.90
2018-12-20T16:30:49.058Z,99.90
2018-12-20T16:33:19.882Z,99.90
2018-12-20T16:38:51.686Z,99.90
2018-12-20T16:41:22.591Z,99.90
2018-12-20T16:43:53.768Z,99.90
2018-12-20T16:46:28.022Z,99.90
2018-12-20T16:48:59.091Z,99.90
2018-12-20T16:51:29.981Z,99.90
2018-12-20T16:54:00.936Z,99.90
2018-12-20T16:56:31.941Z,99.90
2018-12-20T16:59:03.006Z,99.90
2018-12-20T17:04:33.895Z,99.90
2018-12-20T17:07:05.815Z,99.90
2018-12-20T17:09:38.235Z,99.90
2018-12-20T17:12:09.181Z,99.90
2018-12-20T17:14:40.476Z,99.90
2018-12-20T17:17:11.505Z,99.90
2018-12-20T17:19:42.791Z,99.90
2018-12-20T17:22:13.995Z,99.90
2018-12-20T17:24:45.090Z,99.90
2018-12-20T17:27:15.886Z,99.90
2018-12-20T17:29:46.971Z,99.90
2018-12-20T17:32:17.990Z,99.90
2018-12-20T17:34:48.921Z,99.90
2018-12-20T17:37:19.706Z,99.90
2018-12-20T17:39:50.592Z,99.90
2018-12-20T17:42:21.495Z,99.90
2018-12-20T17:44:52.480Z,99.90
2018-12-20T17:47:23.516Z,99.90
2018-12-20T17:49:54.576Z,99.90
2018-12-20T17:52:26.546Z,99.90
2018-12-20T17:54:57.430Z,99.90
2018-12-20T17:57:31.358Z,99.90
2018-12-20T18:00:02.403Z,99.90
2018-12-20T18:02:34.696Z,99.90
2018-12-20T18:05:07.022Z,99.90
2018-12-20T18:07:38.536Z,99.90
2018-12-20T18:10:12.305Z,99.90
2018-12-20T18:12:43.231Z,99.90
2018-12-20T18:15:14.645Z,99.90
2018-12-20T18:17:45.660Z,99.90
2018-12-20T18:20:16.779Z,99.90
2018-12-20T18:22:47.730Z,99.90
2018-12-20T18:25:18.620Z,99.90
2018-12-20T18:27:49.511Z,99.90
2018-12-20T18:30:20.477Z,99.90
2018-12-20T18:32:51.421Z,99.90
2018-12-20T18:35:22.422Z,99.90
2018-12-20T18:37:53.496Z,99.90
2018-12-20T18:40:25.546Z,99.90
2018-12-20T18:42:56.366Z,99.90
2018-12-20T18:45:27.357Z,99.90
2018-12-20T18:47:58.353Z,99.90
2018-12-20T18:50:29.710Z,99.90
2018-12-20T18:53:00.426Z,99.90
2018-12-20T18:55:32.146Z,99.90
2018-12-20T18:58:03.011Z,99.90
2018-12-20T19:00:35.905Z,99.90
2018-12-20T19:03:06.821Z,99.90
2018-12-20T19:05:37.799Z,99.90
2018-12-20T19:08:08.656Z,99.90
2018-12-20T19:10:41.351Z,99.90
2018-12-20T19:13:12.207Z,99.90
2018-12-20T19:15:43.673Z,99.90
2018-12-20T19:18:14.476Z,99.90
2018-12-20T19:20:45.622Z,99.90
2018-12-20T19:23:16.471Z,99.90
2018-12-20T19:25:47.446Z,99.90
2018-12-20T19:28:18.226Z,99.90
2018-12-20T19:30:49.035Z,99.90
2018-12-20T19:33:19.755Z,99.90
2018-12-20T19:35:50.670Z,99.90
2018-12-20T19:38:21.416Z,99.90
2018-12-20T19:40:52.481Z,99.90
2018-12-20T19:43:23.291Z,99.90
2018-12-20T19:45:54.166Z,99.90
2018-12-20T19:48:25.096Z,99.90
2018-12-20T19:50:56.031Z,99.90
2018-12-20T19:53:26.883Z,99.90
2018-12-20T19:55:57.762Z,99.90
2018-12-20T19:58:28.513Z,99.90
2018-12-20T20:00:59.406Z,99.90
2018-12-20T20:03:30.186Z,99.90
2018-12-20T20:06:01.116Z,99.90
2018-12-20T20:08:31.882Z,99.90
2018-12-20T20:11:02.767Z,99.90
2018-12-20T20:13:33.891Z,99.90
2018-12-20T20:16:05.336Z,99.90
2018-12-20T20:18:36.171Z,99.90
2018-12-20T20:21:07.227Z,99.90
2018-12-20T20:23:38.032Z,99.90
2018-12-20T20:26:08.907Z,99.90
2018-12-20T20:28:39.667Z,99.90
2018-12-20T20:31:10.646Z,99.90
2018-12-20T20:33:41.494Z,99.90
2018-12-20T20:36:12.506Z,99.90
2018-12-20T20:38:43.347Z,99.90
2018-12-20T20:41:14.219Z,99.90
2018-12-20T20:43:45.072Z,99.90
2018-12-20T20:46:16.007Z,99.90
2018-12-20T20:48:46.806Z,99.90
2018-12-20T20:51:18.044Z,99.90
2018-12-20T20:53:48.792Z,99.90
2018-12-20T20:56:19.757Z,99.90
2018-12-20T20:58:50.512Z,99.90
2018-12-20T21:01:22.598Z,99.90
2018-12-20T21:03:53.367Z,99.90
2018-12-20T21:06:24.287Z,99.90
2018-12-20T21:08:55.082Z,99.90
2018-12-20T21:11:26.042Z,99.90
2018-12-20T21:13:56.782Z,99.90
2018-12-20T21:16:28.252Z,99.90
2018-12-20T21:18:59.214Z,99.90
2018-12-20T21:21:30.386Z,99.90
2018-12-20T21:24:01.157Z,99.90
2018-12-20T21:26:32.027Z,99.90
2018-12-20T21:29:02.827Z,99.90
2018-12-20T21:31:33.729Z,99.90
2018-12-20T21:34:04.507Z,99.90
2018-12-20T21:36:35.917Z,99.90
2018-12-20T21:39:07.682Z,99.90
2018-12-20T21:41:38.537Z,99.90
2018-12-20T21:44:09.381Z,99.90
2018-12-20T21:46:40.248Z,99.90
2018-12-20T21:49:11.318Z,99.90
2018-12-20T21:51:43.373Z,99.90
2018-12-20T21:54:14.232Z,99.90
2018-12-20T21:56:45.104Z,99.90
2018-12-20T21:59:15.997Z,99.90
2018-12-20T22:01:46.853Z,99.90
2018-12-20T22:04:17.627Z,99.90
2018-12-20T22:06:48.432Z,99.90
2018-12-20T22:09:19.248Z,99.90
2018-12-20T22:11:50.092Z,99.90
2018-12-20T22:14:20.940Z,99.90
2018-12-20T22:16:52.397Z,99.90
2018-12-20T22:19:24.088Z,99.90
2018-12-20T22:21:55.312Z,99.90
2018-12-20T22:24:26.131Z,99.90
2018-12-20T22:26:56.901Z,99.90
2018-12-20T22:29:27.730Z,99.90
2018-12-20T22:31:58.592Z,99.90
2018-12-20T22:34:29.322Z,99.90
2018-12-20T22:37:00.220Z,99.90
2018-12-20T22:39:30.974Z,99.90
2018-12-20T22:42:01.887Z,99.90
2018-12-20T22:44:32.797Z,99.90
2018-12-20T22:47:03.652Z,99.90
2018-12-20T22:49:34.417Z,99.90
2018-12-20T22:52:05.377Z,99.90
2018-12-20T22:54:36.167Z,99.90
2018-12-20T22:57:06.977Z,99.90
2018-12-20T22:59:37.777Z,99.90
2018-12-20T23:02:08.698Z,99.90
2018-12-20T23:04:39.537Z,99.90
2018-12-20T23:07:10.517Z,99.90
2018-12-20T23:09:41.352Z,99.90
2018-12-20T23:12:13.947Z,99.90
2018-12-20T23:14:44.772Z,99.90
2018-12-20T23:17:16.086Z,99.90
2018-12-20T23:19:47.261Z,99.90
2018-12-20T23:22:18.231Z,99.90
2018-12-20T23:24:49.001Z,99.90
2018-12-20T23:27:21.999Z,99.90
2018-12-20T23:29:52.912Z,99.90
2018-12-20T23:32:23.836Z,99.90
2018-12-20T23:34:54.616Z,99.90
2018-12-20T23:37:25.475Z,99.90
2018-12-20T23:39:56.191Z,99.90
2018-12-20T23:42:27.056Z,99.90
2018-12-20T23:44:57.755Z,99.90
2018-12-20T23:47:28.647Z,99.90
2018-12-20T23:49:59.327Z,99.90
2018-12-20T23:52:30.512Z,99.90
2018-12-20T23:55:02.292Z,99.90
2018-12-20T23:57:33.172Z,99.90
